createdAt,value
2018-12-26T00:00:15.964Z,25.12
2018-12-26T00:02:51.746Z,23.98
2018-12-26T00:05:25.636Z,26.37
2018-12-26T00:07:59.150Z,28.85
2018-12-26T00:10:32.387Z,23.20
2018-12-26T00:13:05.728Z,24.52
2018-12-26T00:15:38.814Z,22.77
2018-12-26T00:18:11.420Z,24.45
2018-12-26T00:20:44.905Z,22.98
2018-12-26T00:23:18.771Z,21.50
2018-12-26T00:25:51.869Z,24.77
2018-12-26T00:28:25.190Z,20.02
2018-12-26T00:30:58.213Z,24.27
2018-12-26T00:33:31.505Z,22.95
2018-12-26T00:36:05.086Z,20.75
2018-12-26T00:38:41.040Z,23.00
2018-12-26T00:41:15.890Z,22.30
2018-12-26T00:43:49.263Z,24.92
2018-12-26T00:46:22.764Z,21.23
2018-12-26T00:48:55.777Z,22.55
2018-12-26T00:51:28.858Z,24.32
2018-12-26T00:54:02.547Z,22.40
2018-12-26T00:56:35.983Z,21.75
2018-12-26T00:59:08.954Z,20.23
2018-12-26T01:01:42.274Z,18.90
2018-12-26T01:04:15.558Z,24.92
2018-12-26T01:06:48.503Z,25.52
2018-12-26T01:09:22.363Z,29.02
2018-12-26T01:11:55.803Z,22.32
2018-12-26T01:14:29.520Z,26.10
2018-12-26T01:17:03.029Z,24.18
2018-12-26T01:19:37.270Z,21.75
2018-12-26T01:22:10.704Z,22.15
2018-12-26T01:24:44.063Z,20.62
2018-12-26T01:27:19.884Z,20.60
2018-12-26T01:29:53.586Z,17.67
2018-12-26T01:32:26.973Z,20.32
2018-12-26T01:35:00.289Z,19.07
2018-12-26T01:37:33.671Z,21.05
2018-12-26T01:40:07.548Z,19.65
2018-12-26T01:42:43.240Z,23.12
2018-12-26T01:45:17.129Z,20.88
2018-12-26T01:47:50.567Z,18.23
2018-12-26T01:50:24.358Z,26.05
2018-12-26T01:52:57.848Z,22.32
2018-12-26T01:55:31.511Z,20.25
2018-12-26T01:58:04.427Z,19.48
2018-12-26T02:00:37.600Z,24.27
2018-12-26T02:03:11.444Z,22.35
2018-12-26T02:05:45.507Z,19.32
2018-12-26T02:08:18.470Z,20.30
2018-12-26T02:10:51.844Z,21.48
2018-12-26T02:13:25.005Z,21.45
2018-12-26T02:15:58.700Z,19.87
2018-12-26T02:18:32.469Z,20.25
2018-12-26T02:21:05.447Z,22.02
2018-12-26T02:23:39.170Z,21.33
2018-12-26T02:26:13.010Z,23.52
2018-12-26T02:28:46.941Z,19.92
2018-12-26T02:31:20.337Z,24.07
2018-12-26T02:33:54.073Z,23.22
2018-12-26T02:36:27.168Z,20.55
2018-12-26T02:39:00.433Z,24.10
2018-12-26T02:41:34.360Z,24.10
2018-12-26T02:44:07.783Z,21.57
2018-12-26T02:46:41.588Z,28.12
2018-12-26T02:49:15.087Z,26.40
2018-12-26T02:51:49.871Z,25.10
2018-12-26T02:54:22.587Z,25.62
2018-12-26T02:56:56.274Z,25.50
2018-12-26T02:59:29.748Z,21.62
2018-12-26T03:02:03.048Z,26.35
2018-12-26T03:04:36.023Z,25.37
2018-12-26T03:07:09.542Z,21.50
2018-12-26T03:09:42.538Z,24.20
2018-12-26T03:12:15.497Z,25.90
2018-12-26T03:14:50.561Z,27.75
2018-12-26T03:17:23.648Z,27.05
2018-12-26T03:19:57.170Z,23.55
2018-12-26T03:22:30.527Z,26.55
2018-12-26T03:25:03.850Z,26.60
2018-12-26T03:27:37.227Z,27.75
2018-12-26T03:30:10.214Z,28.27
2018-12-26T03:32:43.111Z,26.52
2018-12-26T03:35:16.394Z,31.17
2018-12-26T03:37:49.492Z,33.45
2018-12-26T03:40:24.377Z,28.25
2018-12-26T03:42:57.803Z,23.80
2018-12-26T03:45:32.532Z,24.80
2018-12-26T03:48:06.451Z,29.42
2018-12-26T03:50:39.862Z,30.20
2018-12-26T03:53:12.924Z,32.93
2018-12-26T03:55:46.140Z,31.02
2018-12-26T03:58:18.645Z,24.45
2018-12-26T04:00:52.547Z,29.82
2018-12-26T04:03:25.913Z,33.20
2018-12-26T04:05:59.725Z,30.43
2018-12-26T04:08:33.208Z,28.32
2018-12-26T04:11:05.900Z,33.67
2018-12-26T04:13:39.414Z,31.90
2018-12-26T04:16:12.264Z,34.85
2018-12-26T04:18:45.756Z,34.27
2018-12-26T04:21:18.964Z,31.73
2018-12-26T04:23:52.686Z,38.92
2018-12-26T04:26:26.275Z,34.85
2018-12-26T04:28:59.693Z,37.08
2018-12-26T04:31:32.699Z,35.55
2018-12-26T04:34:05.925Z,33.50
2018-12-26T04:36:38.995Z,34.30
2018-12-26T04:39:12.045Z,36.28
2018-12-26T04:41:45.718Z,34.03
2018-12-26T04:44:18.792Z,38.00
2018-12-26T04:46:52.216Z,30.65
2018-12-26T04:49:25.111Z,33.55
2018-12-26T04:51:57.302Z,37.65
2018-12-26T04:54:30.840Z,37.67
2018-12-26T04:57:04.490Z,38.55
2018-12-26T04:59:38.185Z,36.42
2018-12-26T05:02:12.098Z,33.42
2018-12-26T05:04:45.396Z,32.23
2018-12-26T05:07:19.220Z,33.65
2018-12-26T05:09:53.027Z,34.18
2018-12-26T05:12:26.904Z,36.80
2018-12-26T05:15:00.435Z,35.15
2018-12-26T05:17:33.393Z,39.25
2018-12-26T05:20:06.828Z,44.08
2018-12-26T05:22:39.556Z,32.70
2018-12-26T05:25:14.491Z,44.25
2018-12-26T05:27:47.661Z,42.33
2018-12-26T05:30:20.611Z,49.23
2018-12-26T05:32:53.979Z,42.60
2018-12-26T05:35:27.946Z,45.40
2018-12-26T05:38:01.276Z,44.03
2018-12-26T05:40:35.641Z,51.42
2018-12-26T05:43:08.517Z,54.85
2018-12-26T05:45:41.682Z,61.15
2018-12-26T05:48:15.183Z,51.18
2018-12-26T05:50:48.508Z,53.08
2018-12-26T05:53:21.463Z,56.25
2018-12-26T05:55:54.454Z,55.50
2018-12-26T05:58:27.964Z,60.08
2018-12-26T06:01:00.961Z,58.52
2018-12-26T06:03:33.628Z,63.70
2018-12-26T06:06:06.525Z,69.50
2018-12-26T06:08:39.828Z,64.05
2018-12-26T06:11:12.824Z,63.65
2018-12-26T06:13:46.647Z,69.27
2018-12-26T06:16:19.965Z,68.60
2018-12-26T06:18:53.005Z,80.85
2018-12-26T06:21:26.401Z,79.62
2018-12-26T06:24:02.545Z,71.05
2018-12-26T06:26:37.384Z,78.78
2018-12-26T06:29:13.236Z,78.35
2018-12-26T06:31:47.015Z,83.52
2018-12-26T06:34:20.051Z,81.55
2018-12-26T06:36:53.627Z,67.55
2018-12-26T06:39:27.454Z,86.65
2018-12-26T06:42:00.652Z,88.15
2018-12-26T06:44:35.141Z,89.25
2018-12-26T06:47:08.527Z,94.77
2018-12-26T06:49:41.562Z,88.47
2018-12-26T06:52:14.629Z,93.95
2018-12-26T06:54:47.284Z,85.72
2018-12-26T06:57:20.617Z,89.65
2018-12-26T06:59:53.969Z,86.37
2018-12-26T07:02:27.417Z,85.10
2018-12-26T07:05:02.234Z,90.75
2018-12-26T07:07:38.410Z,88.15
2018-12-26T07:10:11.695Z,88.10
2018-12-26T07:12:45.411Z,74.58
2018-12-26T07:15:18.489Z,85.72
2018-12-26T07:17:51.730Z,85.60
2018-12-26T07:20:25.204Z,79.70
2018-12-26T07:22:58.335Z,83.97
2018-12-26T07:25:31.588Z,81.85
2018-12-26T07:28:09.213Z,97.12
2018-12-26T07:30:39.885Z,81.92
2018-12-26T07:33:13.267Z,93.45
2018-12-26T07:35:46.266Z,101.42
2018-12-26T07:38:19.914Z,90.65
2018-12-26T07:40:53.394Z,99.37
2018-12-26T07:43:27.112Z,109.20
2018-12-26T07:46:00.159Z,111.17
2018-12-26T07:48:33.478Z,126.78
2018-12-26T07:51:07.315Z,121.45
2018-12-26T07:53:40.371Z,130.32
2018-12-26T07:56:13.318Z,121.77
2018-12-26T07:58:46.564Z,124.27
2018-12-26T08:01:19.628Z,146.90
2018-12-26T08:03:53.439Z,122.02
2018-12-26T08:06:26.434Z,115.90
2018-12-26T08:09:00.012Z,128.50
2018-12-26T08:11:33.655Z,125.22
2018-12-26T08:14:07.249Z,117.03
2018-12-26T08:16:42.141Z,110.45
2018-12-26T08:19:15.967Z,125.70
2018-12-26T08:21:49.649Z,137.37
2018-12-26T08:24:22.876Z,128.93
2018-12-26T08:26:55.897Z,128.62
2018-12-26T08:29:29.774Z,131.70
2018-12-26T08:32:03.167Z,130.30
2018-12-26T08:34:37.527Z,138.18
2018-12-26T08:37:11.049Z,148.72
2018-12-26T08:39:44.033Z,159.87
2018-12-26T08:42:17.213Z,161.05
2018-12-26T08:44:52.930Z,133.30
2018-12-26T08:47:26.009Z,142.68
2018-12-26T08:49:59.103Z,131.45
2018-12-26T08:52:32.610Z,135.20
2018-12-26T08:55:05.347Z,137.82
2018-12-26T08:57:38.366Z,138.22
2018-12-26T09:00:11.261Z,144.28
2018-12-26T09:02:44.754Z,149.35
2018-12-26T09:05:18.195Z,130.10
2018-12-26T09:07:51.754Z,140.55
2018-12-26T09:10:25.062Z,165.03
2018-12-26T09:12:59.140Z,166.95
2018-12-26T09:15:32.152Z,160.12
2018-12-26T09:18:05.239Z,151.25
2018-12-26T09:20:44.659Z,158.65
2018-12-26T09:23:17.741Z,172.35
2018-12-26T09:25:57.407Z,187.07
2018-12-26T09:28:31.355Z,177.65
2018-12-26T09:31:04.707Z,181.40
2018-12-26T09:33:38.121Z,198.87
2018-12-26T09:36:12.088Z,190.77
2018-12-26T09:38:45.169Z,218.60
2018-12-26T09:41:18.943Z,185.10
2018-12-26T09:43:52.022Z,195.35
2018-12-26T09:46:24.987Z,235.63
2018-12-26T09:48:57.989Z,204.70
2018-12-26T09:51:31.840Z,201.30
2018-12-26T09:54:05.797Z,234.70
2018-12-26T09:56:39.153Z,217.82
2018-12-26T09:59:12.846Z,248.47
2018-12-26T10:01:46.269Z,194.13
2018-12-26T10:04:19.724Z,192.98
2018-12-26T10:06:51.953Z,208.20
2018-12-26T10:09:25.359Z,201.07
2018-12-26T12:39:31.829Z,351.67
2018-12-26T12:42:04.975Z,333.00
2018-12-26T12:44:38.283Z,335.63
2018-12-26T12:47:11.618Z,325.75
2018-12-26T12:49:47.144Z,348.70
2018-12-26T12:52:21.085Z,337.50
2018-12-26T12:54:56.439Z,347.98
2018-12-26T12:57:29.849Z,380.40
2018-12-26T13:00:03.245Z,371.65
2018-12-26T13:02:36.342Z,353.23
2018-12-26T13:05:10.415Z,409.90
2018-12-26T13:07:43.577Z,435.32
2018-12-26T13:10:17.171Z,381.65
2018-12-26T13:12:51.291Z,417.90
2018-12-26T13:15:24.546Z,300.07
2018-12-26T13:17:58.527Z,353.83
2018-12-26T13:20:31.942Z,353.92
2018-12-26T13:23:04.565Z,381.70
2018-12-26T13:25:38.436Z,424.30
2018-12-26T13:28:11.675Z,317.68
2018-12-26T13:30:44.857Z,369.62
2018-12-26T13:33:18.772Z,339.08
2018-12-26T13:35:52.195Z,298.68
2018-12-26T13:38:26.088Z,303.45
2018-12-26T13:40:59.464Z,377.13
2018-12-26T13:43:32.526Z,282.15
2018-12-26T13:46:05.207Z,375.60
2018-12-26T13:48:38.419Z,320.67
2018-12-26T13:51:11.512Z,319.65
2018-12-26T13:53:44.274Z,286.50
2018-12-26T13:56:17.778Z,295.18
2018-12-26T13:58:50.459Z,433.18
2018-12-26T14:01:23.215Z,346.95
2018-12-26T14:03:57.174Z,355.73
2018-12-26T14:06:30.827Z,376.07
2018-12-26T14:09:04.783Z,291.52
2018-12-26T14:11:38.458Z,357.52
2018-12-26T14:14:11.987Z,486.65
2018-12-26T14:16:48.143Z,557.45
2018-12-26T14:19:21.244Z,405.43
2018-12-26T14:21:54.841Z,429.07
2018-12-26T14:24:31.313Z,442.57
2018-12-26T14:27:03.742Z,397.75
2018-12-26T14:29:36.921Z,442.25
2018-12-26T14:32:10.267Z,538.65
2018-12-26T14:34:43.915Z,413.20
2018-12-26T14:37:16.533Z,443.75
2018-12-26T14:39:49.942Z,431.85
2018-12-26T14:42:23.495Z,419.23
2018-12-26T14:44:57.451Z,464.20
2018-12-26T14:47:32.314Z,582.45
2018-12-26T14:50:05.481Z,562.40
2018-12-26T14:52:38.559Z,384.52
2018-12-26T14:55:11.272Z,465.00
2018-12-26T14:57:44.329Z,368.07
2018-12-26T15:00:20.091Z,325.13
2018-12-26T15:02:52.220Z,386.87
2018-12-26T15:05:25.937Z,439.82
2018-12-26T15:07:58.515Z,501.30
2018-12-26T15:10:32.906Z,411.58
2018-12-26T15:13:05.933Z,416.30
2018-12-26T15:15:38.988Z,443.15
2018-12-26T15:18:12.447Z,422.10
2018-12-26T15:20:46.017Z,447.67
2018-12-26T15:23:19.558Z,504.05
2018-12-26T15:25:52.788Z,493.15
2018-12-26T15:28:25.430Z,591.70
2018-12-26T15:30:59.388Z,607.60
2018-12-26T15:33:33.688Z,612.90
2018-12-26T15:36:07.441Z,477.67
2018-12-26T15:38:41.041Z,513.33
2018-12-26T15:41:14.957Z,534.48
2018-12-26T15:43:48.145Z,488.63
2018-12-26T15:46:21.935Z,527.45
2018-12-26T15:48:54.915Z,463.93
2018-12-26T15:51:28.385Z,506.02
2018-12-26T15:54:00.707Z,478.60
2018-12-26T15:56:35.029Z,648.73
2018-12-26T15:59:08.786Z,568.23
2018-12-26T16:01:43.550Z,572.40
2018-12-26T16:04:17.463Z,497.25
2018-12-26T16:06:51.432Z,392.25
2018-12-26T16:09:24.154Z,445.23
2018-12-26T16:11:56.724Z,522.33
2018-12-26T16:14:29.797Z,427.80
2018-12-26T16:17:02.529Z,425.77
2018-12-26T16:19:36.002Z,497.55
2018-12-26T16:22:10.003Z,390.45
2018-12-26T16:24:46.861Z,473.00
2018-12-26T16:27:19.864Z,437.95
2018-12-26T16:29:53.507Z,433.05
2018-12-26T16:32:27.093Z,406.85
2018-12-26T16:35:00.564Z,378.18
2018-12-26T16:37:34.008Z,478.82
2018-12-26T16:40:10.389Z,472.80
2018-12-26T16:42:43.754Z,520.80
2018-12-26T16:45:17.071Z,531.37
2018-12-26T16:47:50.524Z,518.83
2018-12-26T16:50:27.164Z,479.77
2018-12-26T16:52:59.065Z,539.37
2018-12-26T16:55:32.069Z,438.35
2018-12-26T16:58:05.230Z,421.07
2018-12-26T17:00:38.251Z,488.33
2018-12-26T17:03:15.317Z,482.68
2018-12-26T17:05:51.573Z,498.25
2018-12-26T17:08:25.380Z,408.32
2018-12-26T17:10:58.894Z,497.60
2018-12-26T17:13:32.498Z,404.68
2018-12-26T17:16:05.478Z,415.25
2018-12-26T17:18:39.084Z,422.43
2018-12-26T17:21:13.042Z,363.37
2018-12-26T17:23:47.167Z,377.38
2018-12-26T17:26:20.799Z,376.07
2018-12-26T17:28:54.831Z,325.62
2018-12-26T17:31:28.013Z,323.65
2018-12-26T17:34:01.263Z,310.65
2018-12-26T17:36:35.428Z,318.97
2018-12-26T17:39:09.195Z,318.93
2018-12-26T17:41:42.480Z,280.45
2018-12-26T17:44:16.044Z,340.40
2018-12-26T17:46:48.981Z,347.00
2018-12-26T17:49:22.529Z,308.82
2018-12-26T17:51:56.019Z,316.42
2018-12-26T17:54:52.948Z,284.77
2018-12-26T17:57:32.451Z,319.18
2018-12-26T18:00:29.151Z,273.52
2018-12-26T18:03:03.139Z,290.68
2018-12-26T18:05:37.037Z,293.40
2018-12-26T18:08:10.140Z,299.23
2018-12-26T18:10:43.657Z,262.85
2018-12-26T18:13:16.362Z,287.88
2018-12-26T18:15:50.349Z,304.70
2018-12-26T18:18:23.832Z,300.90
2018-12-26T18:21:02.266Z,306.00
2018-12-26T18:23:35.065Z,311.68
2018-12-26T18:26:08.454Z,275.93
2018-12-26T18:28:42.265Z,294.37
2018-12-26T18:31:21.972Z,318.12
2018-12-26T18:33:50.885Z,308.60
2018-12-26T18:36:24.369Z,307.67
2018-12-26T18:38:57.793Z,303.35
2018-12-26T18:41:31.167Z,379.23
2018-12-26T18:44:04.350Z,349.37
2018-12-26T18:46:37.750Z,315.20
2018-12-26T18:49:10.850Z,271.50
2018-12-26T18:51:43.862Z,334.77
2018-12-26T18:54:16.420Z,287.15
2018-12-26T18:56:49.838Z,362.70
2018-12-26T18:59:22.912Z,299.52
2018-12-26T19:01:57.445Z,307.85
2018-12-26T19:04:30.638Z,340.82
2018-12-26T19:07:04.110Z,319.48
2018-12-26T19:09:37.176Z,279.65
2018-12-26T19:12:10.192Z,274.27
2018-12-26T19:14:43.813Z,297.95
2018-12-26T19:17:16.819Z,290.68
2018-12-26T19:19:50.523Z,305.73
2018-12-26T19:22:23.652Z,297.42
2018-12-26T19:24:56.316Z,294.30
2018-12-26T19:27:29.060Z,388.00
2018-12-26T19:30:02.539Z,364.50
2018-12-26T19:32:36.066Z,365.48
2018-12-26T19:35:15.061Z,342.87
2018-12-26T19:37:48.580Z,398.43
2018-12-26T19:40:22.388Z,396.43
2018-12-26T19:42:56.705Z,376.75
2018-12-26T19:45:31.021Z,362.10
2018-12-26T19:48:04.242Z,323.60
2018-12-26T19:50:37.281Z,319.55
2018-12-26T19:53:10.913Z,350.07
2018-12-26T19:55:44.074Z,335.38
2018-12-26T19:58:19.469Z,326.77
2018-12-26T20:00:52.120Z,354.77
2018-12-26T20:03:25.532Z,351.37
2018-12-26T20:05:59.417Z,350.48
2018-12-26T20:08:32.082Z,364.52
2018-12-26T20:11:08.531Z,338.65
2018-12-26T20:13:42.175Z,288.55
2018-12-26T20:16:14.835Z,344.87
2018-12-26T20:18:48.869Z,406.67
2018-12-26T20:21:22.963Z,355.35
2018-12-26T20:23:55.834Z,315.00
2018-12-26T20:26:28.503Z,355.07
2018-12-26T20:29:02.571Z,349.05
2018-12-26T20:31:35.965Z,346.70
2018-12-26T20:34:09.186Z,368.52
2018-12-26T20:36:42.756Z,345.45
2018-12-26T20:39:16.318Z,254.53
2018-12-26T20:41:49.553Z,300.82
2018-12-26T20:44:24.672Z,232.25
2018-12-26T20:47:00.659Z,255.27
2018-12-26T20:49:34.136Z,239.38
2018-12-26T20:52:07.877Z,202.28
2018-12-26T20:54:42.534Z,178.85
2018-12-26T20:57:15.666Z,130.12
2018-12-26T20:59:48.354Z,134.30
2018-12-26T21:02:21.769Z,126.82
2018-12-26T21:04:54.794Z,129.82
2018-12-26T21:07:27.918Z,103.20
2018-12-26T21:10:01.539Z,93.40
2018-12-26T21:12:36.049Z,85.40
2018-12-26T21:15:09.940Z,89.47
2018-12-26T21:17:43.857Z,81.15
2018-12-26T21:20:16.947Z,76.65
2018-12-26T21:22:50.680Z,72.50
2018-12-26T21:25:24.264Z,70.25
2018-12-26T21:27:57.724Z,79.25
2018-12-26T21:30:31.169Z,65.37
2018-12-26T21:33:06.188Z,63.33
2018-12-26T21:35:40.023Z,53.70
2018-12-26T21:38:13.211Z,50.73
2018-12-26T21:40:46.884Z,51.02
2018-12-26T21:43:20.016Z,54.25
2018-12-26T21:45:54.002Z,46.95
2018-12-26T21:48:27.092Z,47.73
2018-12-26T21:51:00.466Z,47.48
2018-12-26T21:53:34.294Z,45.45
2018-12-26T21:56:10.251Z,42.43
2018-12-26T21:58:44.214Z,40.75
2018-12-26T22:01:17.516Z,39.40
2018-12-26T22:03:50.634Z,37.23
2018-12-26T22:06:25.007Z,33.18
2018-12-26T22:08:58.048Z,33.63
2018-12-26T22:11:31.559Z,31.90
2018-12-26T22:14:04.737Z,29.52
2018-12-26T22:16:38.335Z,28.90
2018-12-26T22:19:12.996Z,27.73
2018-12-26T22:21:46.553Z,28.12
2018-12-26T22:24:20.106Z,31.68
2018-12-26T22:26:54.114Z,33.83
2018-12-26T22:29:27.464Z,31.23
2018-12-26T22:32:00.682Z,29.00
2018-12-26T22:34:34.784Z,27.22
2018-12-26T22:37:11.686Z,28.02
2018-12-26T22:39:45.271Z,29.05
2018-12-26T22:42:19.041Z,26.17
2018-12-26T22:44:51.803Z,27.60
2018-12-26T22:47:25.236Z,26.95
2018-12-26T22:49:58.922Z,22.00
2018-12-26T22:52:32.205Z,23.10
2018-12-26T22:55:05.442Z,22.58
2018-12-26T22:57:39.001Z,22.90
2018-12-26T23:00:14.926Z,24.50
2018-12-26T23:02:50.454Z,20.95
2018-12-26T23:05:24.244Z,21.00
2018-12-26T23:07:57.514Z,20.70
2018-12-26T23:10:30.662Z,19.55
2018-12-26T23:13:03.371Z,21.48
2018-12-26T23:15:35.578Z,19.25
2018-12-26T23:18:09.073Z,20.55
2018-12-26T23:20:45.030Z,21.77
2018-12-26T23:23:18.298Z,20.50
2018-12-26T23:25:51.390Z,23.20
2018-12-26T23:28:24.591Z,22.17
2018-12-26T23:30:57.966Z,19.37
2018-12-26T23:33:31.358Z,20.02
2018-12-26T23:36:04.771Z,18.62
2018-12-26T23:38:38.297Z,18.40
2018-12-26T23:41:11.910Z,18.87
2018-12-26T23:43:45.617Z,23.30
2018-12-26T23:46:19.057Z,26.57
2018-12-26T23:48:52.216Z,21.75
2018-12-26T23:51:24.851Z,27.93
2018-12-26T23:53:57.488Z,25.90
2018-12-26T23:56:30.862Z,27.00
2018-12-26T23:59:04.402Z,26.00
